createdAt,value
2023-03-22T00:01:54.530Z,37.27
2023-03-22T00:04:21.721Z,31.97
2023-03-22T00:06:48.688Z,28.13
2023-03-22T00:09:15.996Z,27.00
2023-03-22T00:11:42.980Z,27.63
2023-03-22T00:14:10.121Z,27.50
2023-03-22T00:16:37.014Z,25.85
2023-03-22T00:19:04.196Z,27.30
2023-03-22T00:21:31.201Z,27.57
2023-03-22T00:23:58.394Z,26.42
2023-03-22T00:26:25.298Z,25.90
2023-03-22T00:28:52.493Z,27.83
2023-03-22T00:31:20.109Z,27.37
2023-03-22T00:33:47.264Z,26.27
2023-03-22T00:36:14.247Z,26.77
2023-03-22T00:38:43.187Z,27.40
2023-03-22T00:41:17.623Z,28.83
2023-03-22T00:43:46.512Z,26.43
2023-03-22T00:46:15.068Z,26.73
2023-03-22T00:48:42.653Z,28.98
2023-03-22T00:51:10.321Z,27.13
2023-03-22T00:53:41.888Z,26.10
2023-03-22T00:56:10.807Z,30.55
2023-03-22T00:58:37.960Z,30.45
2023-03-22T01:01:05.108Z,28.03
2023-03-22T01:03:33.414Z,29.15
2023-03-22T01:06:00.453Z,30.93
2023-03-22T01:08:33.017Z,29.33
2023-03-22T01:11:01.323Z,27.50
2023-03-22T01:13:29.185Z,28.00
2023-03-22T01:15:56.447Z,30.20
2023-03-22T01:18:23.950Z,31.70
2023-03-22T01:20:51.828Z,30.83
2023-03-22T01:23:18.996Z,28.70
2023-03-22T01:25:46.672Z,26.90
2023-03-22T01:28:13.929Z,29.53
2023-03-22T01:30:41.369Z,28.57
2023-03-22T01:33:09.298Z,27.27
2023-03-22T01:35:36.597Z,28.00
2023-03-22T01:38:04.203Z,30.07
2023-03-22T01:40:31.271Z,29.17
2023-03-22T01:42:58.463Z,29.27
2023-03-22T01:45:34.917Z,29.67
2023-03-22T01:48:07.288Z,29.60
2023-03-22T01:50:37.518Z,28.40
2023-03-22T01:53:08.374Z,27.80
2023-03-22T01:55:35.890Z,29.13
2023-03-22T01:58:04.648Z,28.33
2023-03-22T02:00:32.792Z,28.20
2023-03-22T02:03:00.475Z,27.90
2023-03-22T02:05:28.520Z,28.17
2023-03-22T02:07:56.243Z,29.20
2023-03-22T02:10:26.985Z,28.00
2023-03-22T02:13:16.320Z,27.93
2023-03-22T02:16:06.938Z,30.05
2023-03-22T02:18:47.681Z,28.23
2023-03-22T02:21:44.889Z,29.57
2023-03-22T02:24:46.322Z,29.27
2023-03-22T02:27:27.781Z,29.20
2023-03-22T02:29:54.947Z,28.67
2023-03-22T02:32:49.855Z,29.23
2023-03-22T02:35:33.584Z,28.73
2023-03-22T02:38:03.655Z,27.47
2023-03-22T02:40:40.137Z,27.67
2023-03-22T02:43:19.086Z,29.10
2023-03-22T02:46:19.554Z,29.45
2023-03-22T02:49:12.098Z,27.83
2023-03-22T02:51:57.962Z,28.63
2023-03-22T02:54:35.924Z,28.77
2023-03-22T02:57:08.407Z,27.50
2023-03-22T02:59:38.833Z,26.83
2023-03-22T03:02:09.398Z,27.50
2023-03-22T03:04:42.182Z,26.47
2023-03-22T03:07:14.349Z,23.87
2023-03-22T03:09:42.999Z,24.20
2023-03-22T03:12:22.824Z,24.95
2023-03-22T03:14:49.711Z,25.30
2023-03-22T03:17:44.905Z,25.27
2023-03-22T03:20:15.123Z,25.37
2023-03-22T03:22:51.221Z,24.77
2023-03-22T03:25:43.637Z,25.63
2023-03-22T03:28:23.207Z,23.63
2023-03-22T03:33:27.839Z,25.27
2023-03-22T03:36:04.213Z,24.37
2023-03-22T03:38:36.449Z,24.27
2023-03-22T03:41:20.830Z,25.60
2023-03-22T03:43:49.073Z,23.40
2023-03-22T03:46:16.309Z,23.47
2023-03-22T03:48:47.971Z,22.23
2023-03-22T03:51:15.226Z,23.40
2023-03-22T03:53:42.713Z,24.83
2023-03-22T03:56:10.483Z,29.13
2023-03-22T03:58:37.760Z,31.50
2023-03-22T04:01:05.170Z,30.07
2023-03-22T04:03:32.927Z,31.23
2023-03-22T04:06:00.009Z,28.90
2023-03-22T04:08:27.795Z,24.43
2023-03-22T04:10:59.804Z,23.50
2023-03-22T04:13:29.905Z,22.13
2023-03-22T04:15:58.137Z,23.20
2023-03-22T04:18:25.366Z,23.50
2023-03-22T04:20:53.689Z,24.53
2023-03-22T04:23:23.305Z,22.83
2023-03-22T04:28:19.968Z,20.37
2023-03-22T04:30:52.448Z,20.90
2023-03-22T04:33:19.973Z,21.70
2023-03-22T04:35:46.857Z,18.33
2023-03-22T04:38:14.729Z,21.23
2023-03-22T04:40:46.619Z,20.50
2023-03-22T04:43:15.776Z,20.07
2023-03-22T04:45:43.062Z,21.08
2023-03-22T04:48:11.386Z,22.40
2023-03-22T04:50:40.648Z,24.07
2023-03-22T04:53:08.354Z,25.93
2023-03-22T04:55:38.478Z,24.50
2023-03-22T04:58:05.863Z,24.07
2023-03-22T05:00:38.226Z,21.87
2023-03-22T05:03:06.172Z,21.47
2023-03-22T05:05:33.173Z,26.53
2023-03-22T05:08:00.757Z,28.10
2023-03-22T05:10:27.707Z,27.67
2023-03-22T05:12:55.250Z,26.90
2023-03-22T05:15:22.352Z,25.43
2023-03-22T05:17:50.163Z,23.17
2023-03-22T05:20:17.146Z,21.73
2023-03-22T05:22:50.598Z,20.27
2023-03-22T05:25:17.974Z,18.87
2023-03-22T05:27:45.223Z,17.07
2023-03-22T05:30:13.402Z,15.27
2023-03-22T05:32:44.022Z,18.17
2023-03-22T05:35:12.114Z,17.98
2023-03-22T05:37:39.987Z,17.33
2023-03-22T05:40:10.208Z,19.77
2023-03-22T05:42:37.582Z,19.40
2023-03-22T05:45:04.892Z,19.40
2023-03-22T05:47:32.416Z,19.77
2023-03-22T05:49:59.340Z,19.00
2023-03-22T05:52:34.230Z,19.83
2023-03-22T05:55:05.398Z,19.37
2023-03-22T05:57:34.242Z,16.90
2023-03-22T06:00:01.963Z,18.30
2023-03-22T06:02:29.180Z,18.20
2023-03-22T06:04:56.156Z,17.97
2023-03-22T06:07:23.474Z,17.53
2023-03-22T06:09:50.590Z,17.30
2023-03-22T06:12:19.965Z,18.93
2023-03-22T06:14:46.827Z,18.77
2023-03-22T06:17:15.269Z,20.27
2023-03-22T06:19:42.517Z,17.03
2023-03-22T06:22:09.763Z,20.10
2023-03-22T06:24:36.918Z,16.10
2023-03-22T06:27:04.269Z,17.17
2023-03-22T06:29:31.357Z,15.70
2023-03-22T06:31:59.330Z,15.67
2023-03-22T06:34:26.627Z,17.83
2023-03-22T06:36:53.975Z,17.43
2023-03-22T06:39:21.046Z,18.17
2023-03-22T06:41:48.605Z,17.43
2023-03-22T06:44:16.253Z,16.73
2023-03-22T06:46:43.537Z,16.20
2023-03-22T06:49:10.559Z,17.60
2023-03-22T06:51:37.666Z,17.05
2023-03-22T06:54:04.693Z,16.67
2023-03-22T06:56:31.848Z,16.30
2023-03-22T06:58:58.696Z,15.50
2023-03-22T07:01:26.527Z,16.97
2023-03-22T07:03:53.414Z,16.40
2023-03-22T07:06:20.666Z,16.23
2023-03-22T07:08:47.994Z,18.10
2023-03-22T07:11:15.549Z,16.60
2023-03-22T07:13:42.719Z,16.17
2023-03-22T07:16:10.239Z,14.35
2023-03-22T07:18:37.811Z,13.63
2023-03-22T07:21:05.400Z,14.25
2023-03-22T07:23:32.420Z,13.70
2023-03-22T07:26:00.760Z,13.60
2023-03-22T07:28:27.974Z,11.45
2023-03-22T07:31:07.788Z,11.75
2023-03-22T07:33:34.651Z,12.02
2023-03-22T07:36:01.842Z,11.43
2023-03-22T07:38:28.733Z,11.40
2023-03-22T07:40:56.025Z,12.07
2023-03-22T07:43:23.251Z,13.25
2023-03-22T07:45:51.618Z,11.75
2023-03-22T07:48:22.414Z,11.43
2023-03-22T07:50:49.897Z,11.60
2023-03-22T07:53:16.793Z,11.02
2023-03-22T07:55:44.306Z,11.15
2023-03-22T07:58:11.423Z,10.43
2023-03-22T08:00:39.022Z,10.07
2023-03-22T08:03:06.477Z,10.20
2023-03-22T08:05:33.615Z,11.70
2023-03-22T08:08:00.730Z,9.77
2023-03-22T08:10:28.168Z,10.43
2023-03-22T08:12:55.059Z,10.45
2023-03-22T08:15:22.698Z,9.80
2023-03-22T08:17:49.944Z,9.35
2023-03-22T08:20:18.830Z,8.07
2023-03-22T08:22:45.886Z,8.40
2023-03-22T08:25:14.269Z,7.88
2023-03-22T08:27:41.239Z,7.32
2023-03-22T08:30:09.033Z,7.45
2023-03-22T08:32:36.072Z,9.40
2023-03-22T08:35:06.507Z,7.88
2023-03-22T08:37:33.513Z,6.90
2023-03-22T08:40:00.831Z,7.78
2023-03-22T08:42:27.726Z,6.65
2023-03-22T08:44:54.890Z,7.97
2023-03-22T08:47:21.910Z,7.03
2023-03-22T08:49:49.147Z,7.65
2023-03-22T08:52:16.221Z,6.47
2023-03-22T08:54:43.329Z,6.10
2023-03-22T08:57:11.058Z,7.72
2023-03-22T08:59:38.417Z,6.27
2023-03-22T09:02:05.911Z,6.07
2023-03-22T09:04:33.190Z,6.28
2023-03-22T09:07:00.111Z,5.82
2023-03-22T09:09:27.273Z,6.53
2023-03-22T09:11:54.243Z,6.22
2023-03-22T09:14:21.437Z,6.10
2023-03-22T09:16:48.357Z,5.88
2023-03-22T09:19:15.546Z,6.45
2023-03-22T09:21:42.849Z,6.70
2023-03-22T09:24:10.455Z,6.47
2023-03-22T09:26:37.473Z,5.90
2023-03-22T09:29:04.748Z,6.80
2023-03-22T09:31:31.705Z,5.13
2023-03-22T09:33:58.918Z,5.75
2023-03-22T09:36:26.114Z,4.43
2023-03-22T09:38:53.333Z,3.92
2023-03-22T09:41:32.054Z,4.28
2023-03-22T09:44:03.242Z,4.20
2023-03-22T09:46:34.472Z,4.30
2023-03-22T09:49:06.201Z,3.63
2023-03-22T09:51:48.730Z,3.60
2023-03-22T09:54:27.357Z,3.75
2023-03-22T09:57:29.511Z,3.05
2023-03-22T10:00:12.672Z,67.97
2023-03-22T10:02:50.948Z,3.30
2023-03-22T10:08:12.921Z,2.55
2023-03-22T10:10:43.491Z,47.28
2023-03-22T10:13:36.295Z,24.40
2023-03-22T10:16:10.419Z,3.53
2023-03-22T10:18:46.265Z,2.65
2023-03-22T10:21:15.888Z,3.28
2023-03-22T10:24:01.335Z,7.63
2023-03-22T10:26:34.774Z,3.40
2023-03-22T10:29:12.399Z,2.40
2023-03-22T10:31:43.895Z,2.00
2023-03-22T10:34:22.641Z,2.47
2023-03-22T10:36:54.366Z,9.93
2023-03-22T10:39:42.929Z,2.20
2023-03-22T10:42:17.944Z,3.22
2023-03-22T10:44:52.066Z,2.50
2023-03-22T10:47:27.174Z,2.70
2023-03-22T10:49:57.288Z,2.13
2023-03-22T10:52:30.677Z,3.42
2023-03-22T10:55:02.346Z,2.50
2023-03-22T10:57:31.117Z,2.28
2023-03-22T10:59:58.703Z,2.20
2023-03-22T11:02:32.630Z,2.28
2023-03-22T11:05:02.514Z,2.10
2023-03-22T11:07:44.353Z,2.40
2023-03-22T11:10:23.104Z,2.60
2023-03-22T11:12:55.368Z,2.75
2023-03-22T11:15:30.032Z,3.08
2023-03-22T11:18:12.355Z,2.58
2023-03-22T11:20:53.032Z,2.70
2023-03-22T11:23:21.732Z,2.33
2023-03-22T11:25:51.236Z,3.05
2023-03-22T11:28:40.912Z,2.53
2023-03-22T11:31:09.549Z,2.15
2023-03-22T11:36:16.384Z,2.40
2023-03-22T11:38:45.537Z,2.70
2023-03-22T11:41:25.725Z,2.50
2023-03-22T11:43:58.181Z,4.47
2023-03-22T11:46:25.428Z,8.48
2023-03-22T11:49:00.935Z,5.55
2023-03-22T11:51:35.283Z,6.70
2023-03-22T11:54:25.608Z,3.40
2023-03-22T11:56:58.381Z,5.70
2023-03-22T11:59:36.471Z,3.63
2023-03-22T12:02:27.250Z,3.13
2023-03-22T12:05:09.350Z,3.15
2023-03-22T12:07:38.405Z,3.00
2023-03-22T12:10:18.809Z,10.10
2023-03-22T12:13:01.281Z,5.32
2023-03-22T12:15:35.538Z,3.78
2023-03-22T12:18:19.627Z,4.45
2023-03-22T12:20:58.232Z,3.70
2023-03-22T12:23:29.055Z,2.95
2023-03-22T12:26:11.576Z,3.40
2023-03-22T12:28:47.121Z,3.33
2023-03-22T12:31:21.943Z,2.95
2023-03-22T12:33:52.839Z,3.05
2023-03-22T12:36:41.562Z,5.47
2023-03-22T12:39:24.471Z,3.75
2023-03-22T12:41:57.366Z,3.15
2023-03-22T12:44:38.215Z,2.80
2023-03-22T12:47:13.052Z,3.25
2023-03-22T12:49:46.057Z,3.92
2023-03-22T12:52:25.232Z,4.13
2023-03-22T12:54:55.749Z,3.30
2023-03-22T12:57:23.029Z,3.22
2023-03-22T12:59:54.013Z,3.05
2023-03-22T13:02:32.751Z,3.33
2023-03-22T13:05:05.563Z,4.47
2023-03-22T13:07:37.203Z,5.72
2023-03-22T13:10:30.074Z,4.68
2023-03-22T13:13:16.857Z,12.38
2023-03-22T13:15:55.687Z,20.70
2023-03-22T13:18:43.158Z,3.80
2023-03-22T13:21:16.833Z,13.02
2023-03-22T13:24:05.325Z,8.88
2023-03-22T13:26:39.969Z,3.85
2023-03-22T13:29:32.822Z,3.33
2023-03-22T13:32:04.718Z,8.30
2023-03-22T13:34:39.411Z,3.40
2023-03-22T13:37:17.869Z,4.10
2023-03-22T13:39:51.991Z,3.72
2023-03-22T13:42:22.521Z,3.75
2023-03-22T13:45:03.801Z,3.78
2023-03-22T13:47:44.463Z,5.97
2023-03-22T13:50:28.363Z,3.22
2023-03-22T13:53:24.011Z,3.15
2023-03-22T13:55:54.185Z,4.18
2023-03-22T13:58:31.042Z,4.65
2023-03-22T14:00:59.096Z,6.80
2023-03-22T14:03:31.055Z,14.30
2023-03-22T14:06:28.988Z,3.40
2023-03-22T14:09:06.360Z,3.50
2023-03-22T14:11:43.994Z,3.95
2023-03-22T14:14:27.308Z,4.82
2023-03-22T14:17:06.009Z,6.60
2023-03-22T14:19:35.120Z,17.35
